Time;durP1;ratioP1;P1;durP2;ratioP2;P2;SDS_P1;SDS_P2;PMS_P1;PMS_P2;Temp;Humidity;BMP_temperature;BMP_pressure;BME280_temperature;BME280_humidity;BME280_pressure;Samples;Min_cycle;Max_cycle;Signal;HPM_P1;HPM_P2
2023/03/13 00:01:17;;;;;;;177.10;119.35;;;;;;;;;;5087958;28;20030;-79
2023/03/13 00:03:42;;;;;;;152.40;108.50;;;;;;;;;;5087372;28;20498;-77
2023/03/13 00:06:08;;;;;;;212.55;130.35;;;;;;;;;;5090482;28;20157;-77
2023/03/13 00:08:33;;;;;;;162.98;107.18;;;;;;;;;;5090866;28;20040;-77
2023/03/13 00:11:05;;;;;;;179.25;116.93;;;;;;;;;;5092472;28;20173;-78
2023/03/13 00:13:31;;;;;;;205.95;136.13;;;;;;;;;;5096001;28;20107;-77
2023/03/13 00:16:03;;;;;;;164.75;113.85;;;;;;;;;;5094189;28;20409;-77
2023/03/13 00:18:29;;;;;;;142.27;99.63;;;;;;;;;;5089456;28;20043;-77
2023/03/13 00:20:58;;;;;;;136.63;92.13;;;;;;;;;;5093709;28;20024;-79
2023/03/13 00:23:24;;;;;;;174.52;108.03;;;;;;;;;;5095265;28;20034;-76
2023/03/13 00:25:54;;;;;;;202.50;114.80;;;;;;;;;;5095400;28;20024;-78
2023/03/13 00:28:22;;;;;;;211.95;117.93;;;;;;;;;;5096978;28;20030;-78
2023/03/13 00:30:48;;;;;;;230.85;127.78;;;;;;;;;;5090353;28;20374;-78
2023/03/13 00:33:13;;;;;;;200.32;120.15;;;;;;;;;;5088946;28;20754;-75
2023/03/13 00:35:38;;;;;;;208.40;125.90;;;;;;;;;;5093685;28;20031;-77
2023/03/13 00:38:04;;;;;;;232.60;140.88;;;;;;;;;;5096919;28;20115;-78
2023/03/13 00:40:29;;;;;;;170.73;111.10;;;;;;;;;;5087302;28;20085;-79
2023/03/13 00:42:54;;;;;;;145.30;88.97;;;;;;;;;;5089309;28;20056;-78
2023/03/13 00:45:20;;;;;;;160.43;97.50;;;;;;;;;;5087686;28;20102;-76
2023/03/13 00:47:45;;;;;;;248.77;134.45;;;;;;;;;;5093364;28;20155;-78
2023/03/13 00:50:10;;;;;;;270.52;147.63;;;;;;;;;;5088794;28;20085;-79
2023/03/13 00:52:36;;;;;;;289.83;173.27;;;;;;;;;;5094419;28;20429;-78
2023/03/13 00:55:03;;;;;;;188.23;121.32;;;;;;;;;;5094801;28;20068;-77
2023/03/13 00:57:28;;;;;;;172.57;112.78;;;;;;;;;;5091149;28;20027;-79
2023/03/13 00:59:53;;;;;;;177.70;98.18;;;;;;;;;;5087256;28;20032;-78
2023/03/13 01:02:18;;;;;;;166.63;97.40;;;;;;;;;;5093978;28;20023;-79
2023/03/13 01:04:44;;;;;;;114.65;75.28;;;;;;;;;;5085364;28;20020;-78
2023/03/13 01:07:09;;;;;;;73.53;54.78;;;;;;;;;;5097406;28;20498;-78
2023/03/13 01:09:34;;;;;;;162.77;106.88;;;;;;;;;;5097649;28;20033;-78
2023/03/13 01:12:00;;;;;;;223.68;144.68;;;;;;;;;;5095509;28;20032;-78
2023/03/13 01:14:25;;;;;;;218.52;143.27;;;;;;;;;;5092285;28;20028;-78
2023/03/13 01:16:50;;;;;;;188.13;116.38;;;;;;;;;;5096739;27;20470;-79
2023/03/13 01:19:16;;;;;;;155.63;97.22;;;;;;;;;;5091878;28;20442;-78
2023/03/13 01:21:42;;;;;;;176.13;116.38;;;;;;;;;;5084498;28;20102;-78
2023/03/13 01:24:07;;;;;;;160.30;104.50;;;;;;;;;;5095854;28;20054;-80
2023/03/13 01:26:33;;;;;;;127.70;83.93;;;;;;;;;;5094965;28;20071;-79
2023/03/13 01:28:58;;;;;;;80.50;55.95;;;;;;;;;;5094314;28;20099;-79
2023/03/13 01:31:27;;;;;;;161.18;106.35;;;;;;;;;;5086061;28;20028;-79
2023/03/13 01:33:54;;;;;;;157.95;103.75;;;;;;;;;;5091787;28;20490;-79
2023/03/13 01:36:19;;;;;;;138.02;96.00;;;;;;;;;;5084575;28;20040;-80
2023/03/13 01:38:48;;;;;;;119.30;82.70;;;;;;;;;;5097342;28;20096;-78
2023/03/13 01:41:14;;;;;;;110.32;77.45;;;;;;;;;;5092772;28;20028;-80
2023/03/13 01:43:39;;;;;;;92.63;66.88;;;;;;;;;;5086795;28;20100;-80
2023/03/13 01:46:14;;;;;;;95.88;67.40;;;;;;;;;;5092248;28;20331;-79
2023/03/13 01:48:42;;;;;;;206.60;128.13;;;;;;;;;;5094682;28;20027;-78
2023/03/13 01:51:12;;;;;;;169.68;106.38;;;;;;;;;;5086696;28;20076;-77
2023/03/13 01:53:40;;;;;;;120.43;80.63;;;;;;;;;;5095320;28;20118;-79
2023/03/13 01:56:08;;;;;;;114.95;77.78;;;;;;;;;;5095845;28;20020;-78
2023/03/13 01:58:33;;;;;;;118.82;84.30;;;;;;;;;;5091026;28;20035;-77
2023/03/13 02:00:59;;;;;;;133.30;96.88;;;;;;;;;;5085753;28;20046;-80
2023/03/13 02:03:25;;;;;;;120.30;87.78;;;;;;;;;;5094773;28;20127;-78
2023/03/13 02:05:51;;;;;;;118.82;82.85;;;;;;;;;;5087676;28;20467;-76
2023/03/13 02:08:31;;;;;;;143.32;99.70;;;;;;;;;;5091370;28;20055;-78
2023/03/13 02:11:17;;;;;;;117.00;80.75;;;;;;;;;;5095669;28;20059;-77
2023/03/13 02:13:42;;;;;;;133.07;91.25;;;;;;;;;;5093294;28;20123;-77
2023/03/13 02:16:08;;;;;;;131.73;91.32;;;;;;;;;;5093987;28;20150;-78
2023/03/13 02:18:35;;;;;;;136.02;94.80;;;;;;;;;;5094103;28;20077;-77
2023/03/13 02:21:06;;;;;;;94.45;67.18;;;;;;;;;;5094910;28;20023;-77
2023/03/13 02:23:34;;;;;;;76.43;54.72;;;;;;;;;;5088012;28;20114;-77
2023/03/13 02:25:59;;;;;;;69.60;50.88;;;;;;;;;;5092316;28;20019;-78
2023/03/13 02:28:25;;;;;;;91.40;64.60;;;;;;;;;;5093296;28;20031;-78
2023/03/13 02:30:52;;;;;;;105.10;70.13;;;;;;;;;;5089700;28;20020;-78
2023/03/13 02:33:18;;;;;;;88.35;59.25;;;;;;;;;;5098725;28;20027;-78
2023/03/13 02:35:44;;;;;;;119.22;81.78;;;;;;;;;;5099060;28;20099;-79
2023/03/13 02:38:11;;;;;;;96.70;67.38;;;;;;;;;;5092668;28;20028;-78
2023/03/13 02:40:38;;;;;;;76.13;52.30;;;;;;;;;;5094571;28;20024;-78
2023/03/13 02:43:07;;;;;;;87.68;63.85;;;;;;;;;;5097217;28;20539;-80
2023/03/13 02:45:32;;;;;;;79.65;57.63;;;;;;;;;;5097626;28;20035;-77
2023/03/13 02:47:58;;;;;;;61.42;43.80;;;;;;;;;;5100203;28;20346;-79
2023/03/13 02:50:23;;;;;;;58.15;42.13;;;;;;;;;;5102163;28;20097;-77
2023/03/13 02:52:54;;;;;;;104.47;67.68;;;;;;;;;;5098005;28;20043;-79
2023/03/13 02:55:30;;;;;;;78.22;54.40;;;;;;;;;;5094648;28;20028;-78
2023/03/13 02:57:55;;;;;;;71.15;49.50;;;;;;;;;;5094398;28;20032;-76
2023/03/13 03:00:25;;;;;;;49.85;35.63;;;;;;;;;;5090862;28;20035;-77
2023/03/13 03:02:50;;;;;;;76.93;54.40;;;;;;;;;;5099527;27;20445;-78
2023/03/13 03:05:16;;;;;;;83.65;59.47;;;;;;;;;;5098696;28;20027;-77
2023/03/13 03:07:41;;;;;;;86.07;59.97;;;;;;;;;;5101510;28;20438;-79
2023/03/13 03:10:06;;;;;;;85.05;61.78;;;;;;;;;;5092752;28;20462;-78
2023/03/13 03:12:32;;;;;;;84.18;60.30;;;;;;;;;;5093328;27;20034;-77
2023/03/13 03:14:57;;;;;;;82.85;61.25;;;;;;;;;;5094668;28;20707;-77
2023/03/13 03:17:22;;;;;;;60.95;48.13;;;;;;;;;;5100062;28;20032;-76
2023/03/13 03:19:48;;;;;;;54.13;42.13;;;;;;;;;;5098646;28;20028;-77
2023/03/13 03:22:13;;;;;;;57.28;45.20;;;;;;;;;;5098845;28;20027;-77
2023/03/13 03:24:38;;;;;;;65.65;51.83;;;;;;;;;;5093488;28;20035;-78
2023/03/13 03:27:03;;;;;;;60.00;47.38;;;;;;;;;;5090093;28;20423;-78
2023/03/13 03:29:29;;;;;;;85.45;68.15;;;;;;;;;;5092523;28;20024;-74
2023/03/13 03:31:54;;;;;;;66.63;52.22;;;;;;;;;;5093399;28;20028;-77
2023/03/13 03:34:20;;;;;;;45.42;35.47;;;;;;;;;;5097294;28;20031;-77
2023/03/13 03:36:45;;;;;;;38.20;31.17;;;;;;;;;;5098618;28;20036;-78
2023/03/13 03:39:11;;;;;;;34.38;27.90;;;;;;;;;;5095646;28;20032;-78
2023/03/13 03:41:36;;;;;;;35.92;29.52;;;;;;;;;;5087906;28;20089;-78
2023/03/13 03:44:01;;;;;;;44.45;36.47;;;;;;;;;;5098613;28;20530;-78
2023/03/13 03:46:27;;;;;;;47.92;39.40;;;;;;;;;;5092424;28;20031;-77
2023/03/13 03:48:52;;;;;;;42.90;35.60;;;;;;;;;;5092198;28;20020;-76
2023/03/13 03:51:17;;;;;;;48.47;38.55;;;;;;;;;;5093474;28;20409;-78
2023/03/13 03:53:43;;;;;;;38.85;31.00;;;;;;;;;;5093289;28;20032;-78
2023/03/13 03:56:08;;;;;;;45.78;37.95;;;;;;;;;;5097637;28;20024;-78
2023/03/13 03:58:33;;;;;;;49.05;38.10;;;;;;;;;;5087584;28;20359;-79
2023/03/13 04:00:59;;;;;;;45.08;35.95;;;;;;;;;;5087080;28;20023;-77
2023/03/13 04:03:24;;;;;;;60.00;44.72;;;;;;;;;;5091965;28;20024;-77
2023/03/13 04:05:49;;;;;;;55.65;40.60;;;;;;;;;;5092118;28;20044;-78
2023/03/13 04:08:15;;;;;;;63.35;49.35;;;;;;;;;;5097988;28;20027;-77
2023/03/13 04:10:40;;;;;;;62.58;45.50;;;;;;;;;;5086772;28;20027;-76
2023/03/13 04:13:05;;;;;;;63.97;47.05;;;;;;;;;;5091692;28;20387;-78
2023/03/13 04:15:31;;;;;;;52.33;43.85;;;;;;;;;;5091677;28;20031;-78
2023/03/13 04:17:56;;;;;;;65.50;55.90;;;;;;;;;;5097085;28;20342;-79
2023/03/13 04:20:21;;;;;;;48.47;40.70;;;;;;;;;;5093467;28;20042;-77
2023/03/13 04:22:47;;;;;;;46.80;37.33;;;;;;;;;;5097209;28;20031;-77
2023/03/13 04:25:12;;;;;;;46.22;37.08;;;;;;;;;;5095682;28;20640;-78
2023/03/13 04:27:37;;;;;;;51.80;40.75;;;;;;;;;;5094261;28;20508;-78
2023/03/13 04:30:03;;;;;;;68.75;53.67;;;;;;;;;;5096794;28;20032;-79
2023/03/13 04:32:28;;;;;;;79.30;64.30;;;;;;;;;;5085863;28;20031;-77
2023/03/13 04:34:54;;;;;;;88.65;67.07;;;;;;;;;;5096874;28;20054;-79
2023/03/13 04:37:19;;;;;;;85.45;66.25;;;;;;;;;;5095820;28;20036;-78
2023/03/13 04:39:45;;;;;;;129.27;99.88;;;;;;;;;;5088462;28;20408;-78
2023/03/13 04:42:10;;;;;;;119.35;79.05;;;;;;;;;;5089046;28;20028;-78
2023/03/13 04:44:35;;;;;;;93.55;69.40;;;;;;;;;;5094028;27;20089;-78
2023/03/13 04:47:01;;;;;;;65.05;51.47;;;;;;;;;;5078633;28;20039;-76
2023/03/13 04:49:26;;;;;;;79.22;59.65;;;;;;;;;;5082109;28;20110;-77
2023/03/13 04:51:52;;;;;;;80.38;65.18;;;;;;;;;;5084688;28;20035;-78
2023/03/13 04:54:17;;;;;;;88.68;68.60;;;;;;;;;;5082622;28;20028;-79
2023/03/13 04:56:42;;;;;;;87.40;70.57;;;;;;;;;;5083696;28;20038;-76
2023/03/13 04:59:08;;;;;;;79.35;59.35;;;;;;;;;;5092739;28;20412;-76
2023/03/13 05:01:34;;;;;;;85.70;64.88;;;;;;;;;;5095511;28;20058;-77
2023/03/13 05:03:59;;;;;;;96.90;71.82;;;;;;;;;;5094891;28;20720;-75
2023/03/13 05:06:24;;;;;;;98.35;73.70;;;;;;;;;;5085717;28;20044;-75
2023/03/13 05:08:50;;;;;;;104.88;80.68;;;;;;;;;;5097680;28;20085;-75
2023/03/13 05:11:15;;;;;;;82.65;66.00;;;;;;;;;;5097318;28;20031;-76
2023/03/13 05:13:40;;;;;;;79.28;63.55;;;;;;;;;;5094765;28;20027;-77
2023/03/13 05:16:06;;;;;;;108.45;75.78;;;;;;;;;;5095543;28;20055;-75
2023/03/13 05:18:31;;;;;;;140.85;104.80;;;;;;;;;;5093531;28;20031;-78
2023/03/13 05:20:56;;;;;;;1300.57;636.33;;;;;;;;;;5094874;28;20103;-77
2023/03/13 05:23:22;;;;;;;326.17;211.88;;;;;;;;;;5082141;28;20031;-77
2023/03/13 05:25:47;;;;;;;245.77;194.77;;;;;;;;;;5094112;28;20035;-77
2023/03/13 05:28:12;;;;;;;109.75;79.97;;;;;;;;;;5091958;28;20034;-78
2023/03/13 05:30:38;;;;;;;107.57;71.30;;;;;;;;;;5087726;28;20023;-78
2023/03/13 05:33:03;;;;;;;108.28;72.63;;;;;;;;;;5094430;28;20110;-78
2023/03/13 05:35:28;;;;;;;109.88;74.30;;;;;;;;;;5096664;28;20062;-77
2023/03/13 05:37:54;;;;;;;138.15;101.07;;;;;;;;;;5095192;28;20457;-78
2023/03/13 05:40:19;;;;;;;111.00;79.95;;;;;;;;;;5092476;28;20103;-78
2023/03/13 05:42:44;;;;;;;100.28;76.20;;;;;;;;;;5084167;28;20033;-78
2023/03/13 05:45:10;;;;;;;112.63;82.38;;;;;;;;;;5093819;28;20027;-79
2023/03/13 05:47:35;;;;;;;114.97;87.53;;;;;;;;;;5096038;28;20028;-78
2023/03/13 05:50:01;;;;;;;149.60;102.32;;;;;;;;;;5095001;28;20046;-78
2023/03/13 05:52:26;;;;;;;136.13;96.80;;;;;;;;;;5093516;28;20044;-79
2023/03/13 05:54:52;;;;;;;146.45;105.28;;;;;;;;;;5095612;28;20023;-78
2023/03/13 05:57:17;;;;;;;135.57;99.85;;;;;;;;;;5082843;28;20039;-79
2023/03/13 05:59:42;;;;;;;145.30;104.07;;;;;;;;;;5084071;28;20062;-78
2023/03/13 06:02:08;;;;;;;150.43;112.40;;;;;;;;;;5082670;28;20020;-78
2023/03/13 06:04:34;;;;;;;150.45;115.25;;;;;;;;;;5082727;28;20115;-79
2023/03/13 06:06:59;;;;;;;182.68;134.13;;;;;;;;;;5088394;28;20040;-79
2023/03/13 06:09:24;;;;;;;154.85;113.28;;;;;;;;;;5094586;28;20032;-78
2023/03/13 06:11:50;;;;;;;159.73;118.38;;;;;;;;;;5086753;28;20024;-79
2023/03/13 06:14:15;;;;;;;159.88;117.03;;;;;;;;;;5094448;28;20358;-80
2023/03/13 06:16:40;;;;;;;161.10;117.97;;;;;;;;;;5091875;28;20032;-79
2023/03/13 06:19:06;;;;;;;131.32;97.88;;;;;;;;;;5086010;28;20351;-77
2023/03/13 06:21:31;;;;;;;128.38;100.43;;;;;;;;;;5095913;28;20437;-78
2023/03/13 06:23:56;;;;;;;151.88;118.05;;;;;;;;;;5096826;28;20083;-78
2023/03/13 06:26:24;;;;;;;154.75;124.80;;;;;;;;;;5093316;28;20104;-78
2023/03/13 06:28:49;;;;;;;254.43;163.05;;;;;;;;;;5094343;28;20036;-79
2023/03/13 06:31:15;;;;;;;131.50;92.65;;;;;;;;;;5092980;28;20118;-80
2023/03/13 06:33:40;;;;;;;122.63;92.20;;;;;;;;;;5094613;28;20335;-80
2023/03/13 06:36:06;;;;;;;88.00;63.67;;;;;;;;;;5096697;28;20460;-80
2023/03/13 06:38:31;;;;;;;167.68;124.43;;;;;;;;;;5093575;28;20166;-79
2023/03/13 06:40:57;;;;;;;110.10;82.88;;;;;;;;;;5094423;28;20453;-79
2023/03/13 06:43:22;;;;;;;86.72;68.47;;;;;;;;;;5093841;28;20031;-78
2023/03/13 06:45:47;;;;;;;81.60;63.78;;;;;;;;;;5093425;28;20423;-79
2023/03/13 06:48:13;;;;;;;52.10;42.53;;;;;;;;;;5094690;28;20032;-80
2023/03/13 06:50:38;;;;;;;125.47;89.90;;;;;;;;;;5093227;28;20431;-79
2023/03/13 06:53:04;;;;;;;74.90;54.85;;;;;;;;;;5095827;28;20490;-79
2023/03/13 06:55:29;;;;;;;86.95;68.93;;;;;;;;;;5093528;28;20028;-79
2023/03/13 06:57:55;;;;;;;80.95;64.43;;;;;;;;;;5092876;28;20089;-81
2023/03/13 07:00:20;;;;;;;71.40;60.08;;;;;;;;;;5094675;28;20119;-78
2023/03/13 07:02:45;;;;;;;45.25;40.33;;;;;;;;;;5092119;28;20022;-79
2023/03/13 07:05:13;;;;;;;51.75;41.83;;;;;;;;;;5078681;28;20024;-77
2023/03/13 07:07:38;;;;;;;40.20;33.75;;;;;;;;;;5082605;28;20047;-81
2023/03/13 07:10:04;;;;;;;34.03;30.42;;;;;;;;;;5088712;28;20465;-81
2023/03/13 07:12:29;;;;;;;44.97;37.60;;;;;;;;;;5092439;28;20049;-80
2023/03/13 07:14:54;;;;;;;41.05;32.65;;;;;;;;;;5096246;28;20339;-81
2023/03/13 07:17:19;;;;;;;26.67;23.15;;;;;;;;;;5091677;28;20046;-82
2023/03/13 07:19:45;;;;;;;15.65;14.05;;;;;;;;;;5097930;28;20097;-79
2023/03/13 07:22:10;;;;;;;18.65;15.85;;;;;;;;;;5099523;28;20359;-80
2023/03/13 07:24:35;;;;;;;21.90;19.42;;;;;;;;;;5099965;28;20038;-82
2023/03/13 07:27:01;;;;;;;16.75;14.95;;;;;;;;;;5098704;28;20582;-81
2023/03/13 07:29:26;;;;;;;15.68;14.07;;;;;;;;;;5099850;28;20062;-80
2023/03/13 07:31:51;;;;;;;46.20;32.28;;;;;;;;;;5097864;28;20016;-79
2023/03/13 07:34:17;;;;;;;24.83;20.75;;;;;;;;;;5097603;28;20042;-79
2023/03/13 07:36:42;;;;;;;17.02;15.32;;;;;;;;;;5099652;28;20095;-82
2023/03/13 07:39:08;;;;;;;16.73;14.95;;;;;;;;;;5101000;28;20028;-82
2023/03/13 07:41:33;;;;;;;16.15;14.45;;;;;;;;;;5096925;28;20413;-81
2023/03/13 07:43:58;;;;;;;17.40;15.55;;;;;;;;;;5096082;28;20442;-82
2023/03/13 07:46:24;;;;;;;20.67;17.10;;;;;;;;;;5096477;28;20106;-80
2023/03/13 07:48:50;;;;;;;18.35;16.42;;;;;;;;;;5088120;28;20084;-81
2023/03/13 07:51:19;;;;;;;18.23;16.17;;;;;;;;;;5095203;28;20043;-81
2023/03/13 07:53:48;;;;;;;100.15;60.55;;;;;;;;;;5093250;28;20435;-79
2023/03/13 07:56:14;;;;;;;38.45;28.95;;;;;;;;;;5093730;28;20417;-79
2023/03/13 07:58:40;;;;;;;30.02;24.48;;;;;;;;;;5085740;28;20126;-79
2023/03/13 08:01:14;;;;;;;19.90;17.88;;;;;;;;;;5088607;28;20138;-81
2023/03/13 08:03:40;;;;;;;22.45;19.42;;;;;;;;;;5087218;28;20031;-81
2023/03/13 08:06:07;;;;;;;24.30;20.80;;;;;;;;;;5087436;28;20351;-80
2023/03/13 08:08:32;;;;;;;18.42;16.52;;;;;;;;;;5086971;28;20024;-80
2023/03/13 08:11:01;;;;;;;164.88;95.30;;;;;;;;;;5086779;28;20110;-80
2023/03/13 08:13:27;;;;;;;74.80;50.87;;;;;;;;;;5086325;28;20033;-77
2023/03/13 08:15:59;;;;;;;98.05;61.38;;;;;;;;;;5086426;28;20102;-77
2023/03/13 08:18:25;;;;;;;74.90;49.20;;;;;;;;;;5085972;28;20032;-79
2023/03/13 08:20:51;;;;;;;155.13;103.50;;;;;;;;;;5086477;28;20026;-78
2023/03/13 08:23:16;;;;;;;58.90;43.85;;;;;;;;;;5085777;28;20019;-76
2023/03/13 08:25:41;;;;;;;22.35;19.98;;;;;;;;;;5085260;28;20145;-78
2023/03/13 08:28:07;;;;;;;44.97;37.30;;;;;;;;;;5086114;28;20030;-77
2023/03/13 08:30:33;;;;;;;39.90;32.30;;;;;;;;;;5086185;28;20024;-79
2023/03/13 08:32:58;;;;;;;47.53;42.63;;;;;;;;;;5086504;28;20031;-76
2023/03/13 08:35:23;;;;;;;30.48;27.13;;;;;;;;;;5085609;28;20476;-78
2023/03/13 08:37:48;;;;;;;37.13;28.88;;;;;;;;;;5084793;28;20087;-76
2023/03/13 08:40:14;;;;;;;28.70;22.98;;;;;;;;;;5085768;28;20073;-78
2023/03/13 08:42:39;;;;;;;25.48;19.65;;;;;;;;;;5087068;28;20089;-77
2023/03/13 08:45:05;;;;;;;18.13;16.23;;;;;;;;;;5084532;28;20080;-77
2023/03/13 08:47:30;;;;;;;19.90;17.10;;;;;;;;;;5085868;28;20058;-78
2023/03/13 08:49:56;;;;;;;19.52;17.52;;;;;;;;;;5086326;28;20051;-78
2023/03/13 08:52:22;;;;;;;43.53;33.50;;;;;;;;;;5084945;28;20038;-76
2023/03/13 08:54:47;;;;;;;40.70;27.92;;;;;;;;;;5086119;28;20450;-76
2023/03/13 08:57:14;;;;;;;15.13;13.52;;;;;;;;;;5079615;28;20031;-78
2023/03/13 08:59:39;;;;;;;14.00;12.50;;;;;;;;;;5082937;28;20030;-79
2023/03/13 09:02:05;;;;;;;47.10;32.28;;;;;;;;;;5086023;28;20028;-77
2023/03/13 09:04:30;;;;;;;22.10;19.80;;;;;;;;;;5084159;28;20028;-78
2023/03/13 09:06:55;;;;;;;20.08;18.08;;;;;;;;;;5084502;28;20086;-78
2023/03/13 09:09:21;;;;;;;44.22;35.30;;;;;;;;;;5084969;28;20023;-77
2023/03/13 09:11:46;;;;;;;26.75;22.98;;;;;;;;;;5085291;28;20388;-77
2023/03/13 09:14:11;;;;;;;26.80;23.52;;;;;;;;;;5083438;28;20102;-77
2023/03/13 09:16:37;;;;;;;15.98;14.27;;;;;;;;;;5084807;28;21001;-77
2023/03/13 09:19:03;;;;;;;44.88;32.55;;;;;;;;;;5084046;28;23211;-77
2023/03/13 09:21:29;;;;;;;48.88;34.67;;;;;;;;;;5084699;28;20071;-76
2023/03/13 09:23:55;;;;;;;20.65;18.23;;;;;;;;;;5084608;28;20031;-76
2023/03/13 09:26:23;;;;;;;13.52;12.18;;;;;;;;;;5084605;28;20435;-76
2023/03/13 09:28:49;;;;;;;35.10;31.33;;;;;;;;;;5082861;28;20027;-76
2023/03/13 09:31:22;;;;;;;27.10;24.25;;;;;;;;;;5083954;28;20359;-76
2023/03/13 09:33:48;;;;;;;14.73;13.15;;;;;;;;;;5084300;28;20019;-76
2023/03/13 09:36:14;;;;;;;11.63;10.63;;;;;;;;;;5083496;28;20027;-77
2023/03/13 09:38:40;;;;;;;24.33;16.98;;;;;;;;;;5080109;28;20043;-77
2023/03/13 09:41:17;;;;;;;23.25;20.02;;;;;;;;;;5079153;28;20068;-76
2023/03/13 09:44:00;;;;;;;26.77;23.65;;;;;;;;;;5078809;28;20401;-79
2023/03/13 09:46:30;;;;;;;26.55;23.70;;;;;;;;;;5080897;28;20031;-76
2023/03/13 09:48:58;;;;;;;24.70;21.90;;;;;;;;;;5081425;28;20104;-76
2023/03/13 09:51:26;;;;;;;22.77;20.20;;;;;;;;;;5081329;28;20087;-76
2023/03/13 09:54:13;;;;;;;18.38;16.50;;;;;;;;;;5081815;28;20402;-77
2023/03/13 09:56:41;;;;;;;20.90;18.60;;;;;;;;;;5079050;28;20051;-76
2023/03/13 09:59:18;;;;;;;18.95;17.02;;;;;;;;;;5078894;28;20036;-77
2023/03/13 10:01:45;;;;;;;14.05;11.52;;;;;;;;;;5082283;28;20060;-76
2023/03/13 10:04:25;;;;;;;13.82;12.43;;;;;;;;;;5083296;28;20077;-76
2023/03/13 10:06:51;;;;;;;9.75;8.75;;;;;;;;;;5082435;28;20740;-76
2023/03/13 10:09:20;;;;;;;10.20;9.20;;;;;;;;;;5084657;28;20043;-76
2023/03/13 10:11:53;;;;;;;11.50;10.30;;;;;;;;;;5082691;28;20054;-76
2023/03/13 10:14:27;;;;;;;13.60;11.23;;;;;;;;;;5083634;28;20016;-77
2023/03/13 10:17:00;;;;;;;10.23;9.15;;;;;;;;;;5082552;28;20055;-77
2023/03/13 10:19:30;;;;;;;11.73;10.52;;;;;;;;;;5083310;28;20050;-77
2023/03/13 10:21:56;;;;;;;9.75;8.75;;;;;;;;;;5083300;28;20339;-77
2023/03/13 10:24:40;;;;;;;15.30;12.95;;;;;;;;;;5083763;28;20034;-78
2023/03/13 10:27:07;;;;;;;10.05;9.07;;;;;;;;;;5083624;28;20027;-78
2023/03/13 10:29:33;;;;;;;7.55;6.85;;;;;;;;;;5084189;28;20119;-78
2023/03/13 10:31:59;;;;;;;8.73;7.88;;;;;;;;;;5083850;28;20024;-78
2023/03/13 10:34:25;;;;;;;23.20;12.20;;;;;;;;;;5081003;28;20020;-77
2023/03/13 10:36:54;;;;;;;10.90;9.90;;;;;;;;;;5083168;28;20031;-77
2023/03/13 10:39:23;;;;;;;8.05;7.25;;;;;;;;;;5081891;28;20458;-78
2023/03/13 10:41:49;;;;;;;7.63;6.13;;;;;;;;;;5084636;28;20028;-76
2023/03/13 10:44:16;;;;;;;7.07;6.38;;;;;;;;;;5083949;28;20031;-77
2023/03/13 10:46:42;;;;;;;8.52;7.63;;;;;;;;;;5083697;28;20046;-76
2023/03/13 10:49:15;;;;;;;15.40;13.57;;;;;;;;;;5082332;28;20102;-76
2023/03/13 10:51:47;;;;;;;25.10;22.48;;;;;;;;;;5086646;28;20038;-76
2023/03/13 10:54:20;;;;;;;8.88;7.95;;;;;;;;;;5087073;28;20094;-77
2023/03/13 10:56:46;;;;;;;5.32;4.82;;;;;;;;;;5086481;28;20023;-77
2023/03/13 10:59:22;;;;;;;12.10;7.80;;;;;;;;;;5087435;28;20530;-76
2023/03/13 11:01:50;;;;;;;5.88;5.25;;;;;;;;;;5088569;28;20058;-77
2023/03/13 11:04:24;;;;;;;11.80;9.60;;;;;;;;;;5087699;28;20434;-77
2023/03/13 11:06:51;;;;;;;40.88;30.27;;;;;;;;;;5085734;28;20075;-77
2023/03/13 11:09:17;;;;;;;10.20;9.10;;;;;;;;;;5088132;28;20027;-76
2023/03/13 11:11:47;;;;;;;18.90;14.05;;;;;;;;;;5086536;28;20439;-76
2023/03/13 11:14:14;;;;;;;22.15;17.73;;;;;;;;;;5084718;28;20027;-75
2023/03/13 11:16:46;;;;;;;22.30;19.15;;;;;;;;;;5086647;28;20019;-75
2023/03/13 11:19:23;;;;;;;7.07;6.38;;;;;;;;;;5088132;28;20036;-76
2023/03/13 11:22:03;;;;;;;7.07;6.38;;;;;;;;;;5086084;28;20150;-79
2023/03/13 11:24:31;;;;;;;37.60;32.63;;;;;;;;;;5085150;28;20024;-75
2023/03/13 11:26:57;;;;;;;12.00;10.80;;;;;;;;;;5090988;28;20442;-73
2023/03/13 11:29:25;;;;;;;11.05;9.95;;;;;;;;;;5099964;28;20030;-73
2023/03/13 11:31:55;;;;;;;12.63;11.03;;;;;;;;;;5095997;28;20111;-73
2023/03/13 11:34:22;;;;;;;10.50;8.10;;;;;;;;;;5095958;28;20339;-73
2023/03/13 11:37:01;;;;;;;7.13;6.43;;;;;;;;;;5100352;27;20023;-73
2023/03/13 11:39:49;;;;;;;13.25;11.95;;;;;;;;;;5098105;28;20880;-73
2023/03/13 11:42:24;;;;;;;11.73;10.53;;;;;;;;;;5087987;28;20110;-75
2023/03/13 11:44:56;;;;;;;9.93;8.73;;;;;;;;;;5094075;28;20245;-72
2023/03/13 11:47:47;;;;;;;10.73;8.98;;;;;;;;;;5094593;28;20035;-72
2023/03/13 11:50:25;;;;;;;11.13;9.27;;;;;;;;;;5056565;28;20033;-73
2023/03/13 11:53:08;;;;;;;6.38;5.78;;;;;;;;;;5055734;28;20123;-73
2023/03/13 11:55:40;;;;;;;5.60;5.10;;;;;;;;;;5044149;28;20111;-73
2023/03/13 11:58:12;;;;;;;7.55;5.97;;;;;;;;;;5041307;28;20028;-74
2023/03/13 12:00:40;;;;;;;14.70;12.70;;;;;;;;;;5042766;28;20048;-72
2023/03/13 12:03:21;;;;;;;8.85;7.95;;;;;;;;;;5050330;28;20439;-73
2023/03/13 12:05:51;;;;;;;5.93;5.35;;;;;;;;;;5057450;28;20028;-73
2023/03/13 12:08:29;;;;;;;5.65;5.00;;;;;;;;;;5054048;28;20096;-75
2023/03/13 12:11:00;;;;;;;32.17;29.10;;;;;;;;;;5056836;28;20064;-74
2023/03/13 12:13:32;;;;;;;7.85;7.05;;;;;;;;;;5055797;28;20041;-73
2023/03/13 12:15:59;;;;;;;6.18;5.57;;;;;;;;;;5055891;28;20033;-74
2023/03/13 12:18:30;;;;;;;11.80;10.57;;;;;;;;;;5057099;28;20085;-75
2023/03/13 12:21:00;;;;;;;19.55;13.93;;;;;;;;;;5056376;28;20048;-75
2023/03/13 12:23:31;;;;;;;11.48;9.60;;;;;;;;;;5054954;28;20036;-74
2023/03/13 12:25:59;;;;;;;7.65;6.93;;;;;;;;;;5057810;28;20028;-75
2023/03/13 12:28:41;;;;;;;7.60;6.80;;;;;;;;;;5098270;28;20027;-72
2023/03/13 12:31:07;;;;;;;9.85;8.48;;;;;;;;;;5096773;28;20027;-74
2023/03/13 12:33:41;;;;;;;7.00;6.30;;;;;;;;;;5096438;28;20029;-73
2023/03/13 12:36:11;;;;;;;19.80;14.07;;;;;;;;;;5096348;28;20699;-73
2023/03/13 12:38:36;;;;;;;;;;;;;;;;;;5097107;28;20015;-73
2023/03/13 12:41:09;;;;;;;8.73;7.93;;;;;;;;;;5099452;28;19920;-72
2023/03/13 12:43:38;;;;;;;5.30;4.80;;;;;;;;;;5094346;28;20034;-72
2023/03/13 12:46:03;;;;;;;5.40;4.78;;;;;;;;;;5097091;28;20118;-72
2023/03/13 12:48:40;;;;;;;4.80;4.40;;;;;;;;;;5097804;28;20114;-74
2023/03/13 12:51:06;;;;;;;7.28;6.18;;;;;;;;;;5094961;28;20034;-74
2023/03/13 12:53:49;;;;;;;29.05;23.17;;;;;;;;;;5095901;28;20027;-72
2023/03/13 12:56:24;;;;;;;11.98;10.77;;;;;;;;;;5097945;28;20434;-72
2023/03/13 12:59:16;;;;;;;7.28;6.68;;;;;;;;;;5097562;28;20027;-72
2023/03/13 13:01:44;;;;;;;5.43;4.93;;;;;;;;;;5074935;28;20096;-73
2023/03/13 13:04:20;;;;;;;6.10;5.32;;;;;;;;;;5073156;28;20337;-72
2023/03/13 13:06:54;;;;;;;10.60;9.57;;;;;;;;;;5073686;28;20040;-74
2023/03/13 13:09:27;;;;;;;4.65;4.20;;;;;;;;;;5074829;28;20046;-73
2023/03/13 13:11:56;;;;;;;12.60;10.85;;;;;;;;;;5075892;28;20142;-73
2023/03/13 13:14:21;;;;;;;11.32;10.23;;;;;;;;;;5073099;28;20012;-72
2023/03/13 13:16:49;;;;;;;7.07;6.37;;;;;;;;;;5076298;28;20081;-73
2023/03/13 13:19:24;;;;;;;5.80;4.65;;;;;;;;;;5073398;28;20358;-73
2023/03/13 13:22:07;;;;;;;6.80;6.15;;;;;;;;;;5074989;28;20067;-73
2023/03/13 13:24:40;;;;;;;23.35;15.52;;;;;;;;;;5074295;28;20036;-73
2023/03/13 13:27:25;;;;;;;5.47;4.97;;;;;;;;;;5074221;28;20043;-73
2023/03/13 13:29:52;;;;;;;23.00;19.75;;;;;;;;;;5075623;28;20023;-72
2023/03/13 13:32:27;;;;;;;4.90;4.43;;;;;;;;;;5075048;28;20040;-74
2023/03/13 13:34:53;;;;;;;6.32;5.55;;;;;;;;;;5075346;28;20051;-72
2023/03/13 13:37:22;;;;;;;25.25;17.92;;;;;;;;;;5073908;28;20039;-74
2023/03/13 13:39:51;;;;;;;8.00;6.53;;;;;;;;;;5097505;28;20032;-72
2023/03/13 13:42:16;;;;;;;;;;;;;;;;;;5096294;28;20028;-71
2023/03/13 13:45:00;;;;;;;7.70;7.00;;;;;;;;;;5097092;28;19912;-74
2023/03/13 13:47:27;;;;;;;4.05;3.75;;;;;;;;;;5094753;28;20388;-71
2023/03/13 13:49:56;;;;;;;4.05;3.70;;;;;;;;;;5095074;28;20028;-74
2023/03/13 13:52:47;;;;;;;5.35;4.85;;;;;;;;;;5091908;28;20034;-72
2023/03/13 13:55:25;;;;;;;3.88;3.53;;;;;;;;;;5094186;28;20122;-74
2023/03/13 13:57:57;;;;;;;5.35;4.03;;;;;;;;;;5098812;28;21000;-74
2023/03/13 14:00:27;;;;;;;4.15;3.75;;;;;;;;;;5094176;28;20107;-74
2023/03/13 14:02:56;;;;;;;5.85;5.35;;;;;;;;;;5095932;28;20122;-73
2023/03/13 14:05:25;;;;;;;10.55;9.57;;;;;;;;;;5095519;28;20070;-72
2023/03/13 14:07:55;;;;;;;6.10;5.50;;;;;;;;;;5097633;28;20056;-73
2023/03/13 14:10:20;;;;;;;8.23;5.93;;;;;;;;;;5094278;28;20058;-71
2023/03/13 14:12:50;;;;;;;5.45;4.28;;;;;;;;;;5097286;28;20426;-73
2023/03/13 14:15:15;;;;;;;;;;;;;;;;;;5097213;28;20050;-72
2023/03/13 14:17:45;;;;;;;3.63;3.23;;;;;;;;;;5097109;28;20398;-73
2023/03/13 14:20:33;;;;;;;4.78;4.40;;;;;;;;;;5083101;28;20062;-73